Disclaimer

Please do not use the information listed here in-flight or in-navigation, as they are not provided to us by the airports but are provided by volunteers, so they might be outdated.

Search


Regions


Airport information page

Radio informations:
SFAX TWR - 120.15 MHz
SFAX APP - 123.7 MHz

Airport informations:
Latitude: 34° 43' 04.63" N
Longitude: 010° 41' 27.50" E
Elevation: 85 feet - 26 meters
Operating hours: Remarks
Operating agency: Civil government, landing fees and diplomatic clearance may be required
Timezone: UTC+1(+2DT) - Dates notified by NOTAM
Fuel: Unknown fuel type or whether there is any fuel.

Runway information:
15/33 - 9843 x 148 feet< - >3000 x 45 meters

Recent METARs:
DTTX 130300Z 28004KT CAVOK 07/02 Q1017 NOSIG
DTTX 130400Z VRB02KT CAVOK 07/02 Q1016 NOSIG
DTTX 130400Z VRB02KT CAVOK 07/02 Q1016 NOSIG

Airport on the map: